Time;durP1;ratioP1;P1;durP2;ratioP2;P2;SDS_P1;SDS_P2;PMS_P1;PMS_P2;Temp;Humidity;BMP_temperature;BMP_pressure;BME280_temperature;BME280_humidity;BME280_pressure;Samples;Min_cycle;Max_cycle;Signal;HPM_P1;HPM_P2
2022/02/12 00:00:25;;;;;;;20.12;12.13;;;;;;;1.58;100.00;99764.63;2216006;80;20974;-82
2022/02/12 00:03:28;;;;;;;17.45;11.90;;;;;;;1.61;100.00;99761.02;2222642;80;20977;-82
2022/02/12 00:06:31;;;;;;;23.35;13.45;;;;;;;1.60;100.00;99763.23;2223860;80;21012;-81
2022/02/12 00:09:31;;;;;;;21.80;13.40;;;;;;;1.58;100.00;99763.34;2214785;80;21086;-82
2022/02/12 00:12:32;;;;;;;15.55;11.83;;;;;;;1.64;100.00;99770.67;2207637;80;20966;-82
2022/02/12 00:15:33;;;;;;;18.20;11.57;;;;;;;1.66;100.00;99762.86;2214472;80;21492;-82
2022/02/12 00:18:34;;;;;;;18.12;12.28;;;;;;;1.67;100.00;99763.22;2214832;80;20952;-81
2022/02/12 00:21:34;;;;;;;18.05;12.33;;;;;;;1.60;100.00;99755.48;2224286;80;20949;-82
2022/02/12 00:24:35;;;;;;;25.88;14.07;;;;;;;1.64;100.00;99772.43;2224017;80;21005;-83
2022/02/12 00:27:36;;;;;;;17.17;12.90;;;;;;;1.62;100.00;99784.61;2224047;80;21021;-82
2022/02/12 00:30:37;;;;;;;17.98;12.43;;;;;;;1.64;100.00;99772.43;2223379;80;21416;-82
2022/02/12 00:33:38;;;;;;;19.07;12.18;;;;;;;1.63;100.00;99787.09;2191924;80;20976;-82
2022/02/12 00:36:38;;;;;;;22.35;12.90;;;;;;;1.61;100.00;99786.37;2185685;81;21004;-82
2022/02/12 00:39:39;;;;;;;20.95;14.28;;;;;;;1.62;100.00;99794.94;2185504;80;20954;-83
2022/02/12 00:42:40;;;;;;;24.67;15.93;;;;;;;1.62;100.00;99796.23;2199737;80;20948;-82
2022/02/12 00:45:41;;;;;;;20.68;13.22;;;;;;;1.60;100.00;99808.41;2207972;80;21498;-82
2022/02/12 00:48:42;;;;;;;20.20;13.62;;;;;;;1.56;100.00;99816.83;2187502;81;20989;-83
2022/02/12 00:51:42;;;;;;;20.10;14.15;;;;;;;1.50;100.00;99815.91;2189130;81;21016;-81
2022/02/12 00:54:43;;;;;;;20.77;14.28;;;;;;;1.46;100.00;99826.50;2198466;81;20965;-82
2022/02/12 00:57:44;;;;;;;20.52;15.05;;;;;;;1.43;100.00;99845.59;2202974;81;21034;-82
2022/02/12 01:00:45;;;;;;;11.38;7.45;;;;;;;1.38;100.00;99879.91;2205590;81;20997;-82
2022/02/12 01:03:46;;;;;;;9.08;4.62;;;;;;;1.18;100.00;99863.48;2203378;80;20966;-82
2022/02/12 01:06:47;;;;;;;4.47;3.77;;;;;;;0.96;100.00;99870.39;2197829;81;21001;-82
2022/02/12 01:09:47;;;;;;;4.40;3.90;;;;;;;0.79;100.00;99873.48;2197794;80;21034;-83
2022/02/12 01:12:48;;;;;;;6.30;5.22;;;;;;;0.67;100.00;99867.77;2144955;82;21055;-83
2022/02/12 01:15:49;;;;;;;10.48;6.85;;;;;;;0.66;100.00;99862.70;2197784;81;21486;-82
2022/02/12 01:18:50;;;;;;;9.35;6.03;;;;;;;0.66;100.00;99867.40;2139852;83;21009;-81
2022/02/12 01:21:51;;;;;;;12.45;7.80;;;;;;;0.67;100.00;99871.63;2198789;80;21544;-81
2022/02/12 01:24:51;;;;;;;13.85;9.33;;;;;;;0.70;100.00;99875.31;2207137;80;20985;-82
2022/02/12 01:27:53;;;;;;;15.38;11.15;;;;;;;0.77;100.00;99876.63;2213100;80;21001;-82
2022/02/12 01:30:54;;;;;;;19.17;11.35;;;;;;;0.83;100.00;99883.19;2212932;80;21042;-83
2022/02/12 01:33:54;;;;;;;18.05;11.28;;;;;;;0.83;100.00;99882.72;2206544;80;20958;-83
2022/02/12 01:36:55;;;;;;;17.67;11.63;;;;;;;0.84;100.00;99880.97;2206032;80;21120;-83
2022/02/12 01:39:56;;;;;;;17.60;9.63;;;;;;;0.83;100.00;99889.17;2212845;80;21073;-83
2022/02/12 01:43:01;;;;;;;18.77;12.10;;;;;;;0.84;100.00;99897.73;2208656;80;20910;-82
2022/02/12 01:46:00;;;;;;;19.62;12.53;;;;;;;0.80;100.00;99900.92;2200954;81;21009;-83
2022/02/12 01:49:00;;;;;;;18.80;11.25;;;;;;;0.75;100.00;99900.38;2206564;80;20989;-82
2022/02/12 01:52:01;;;;;;;17.95;10.70;;;;;;;0.67;100.00;99896.13;2222771;80;20934;-82
2022/02/12 01:55:02;;;;;;;18.50;12.53;;;;;;;0.60;100.00;99906.87;2222930;80;21460;-83
2022/02/12 01:58:06;;;;;;;20.50;12.98;;;;;;;0.53;100.00;99913.65;2223843;80;20933;-82
2022/02/12 02:01:06;;;;;;;17.50;10.53;;;;;;;0.45;100.00;99922.73;2220824;79;21001;-81
2022/02/12 02:04:07;;;;;;;21.80;12.88;;;;;;;0.37;100.00;99923.64;2186401;81;20986;-82
2022/02/12 02:07:08;;;;;;;20.82;12.10;;;;;;;0.32;100.00;99923.88;2218956;80;20997;-81
2022/02/12 02:10:08;;;;;;;19.42;11.38;;;;;;;0.25;100.00;99932.40;2223433;80;21040;-81
2022/02/12 02:13:09;;;;;;;13.53;9.15;;;;;;;0.19;100.00;99946.92;2221252;80;21057;-82
2022/02/12 02:16:10;;;;;;;14.68;10.13;;;;;;;0.14;100.00;99956.64;2180949;82;21036;-81
2022/02/12 02:19:12;;;;;;;14.55;9.48;;;;;;;0.11;100.00;99961.14;2191996;81;20948;-82
2022/02/12 02:22:12;;;;;;;16.23;9.90;;;;;;;0.07;100.00;99966.06;2181781;82;21524;-82
2022/02/12 02:25:15;;;;;;;16.30;9.25;;;;;;;0.02;100.00;99965.49;2156840;81;21008;-84
2022/02/12 02:28:16;;;;;;;16.87;7.50;;;;;;;-0.04;100.00;99971.79;2106579;84;21001;-84
2022/02/12 02:31:16;;;;;;;19.40;8.25;;;;;;;-0.09;100.00;99976.34;2154044;83;21044;-84
2022/02/12 02:34:17;;;;;;;11.10;7.60;;;;;;;-0.14;100.00;99984.32;2110406;83;21879;-83
2022/02/12 02:37:18;;;;;;;11.83;7.15;;;;;;;-0.19;100.00;99994.02;2163774;81;21065;-83
2022/02/12 02:40:19;;;;;;;13.78;7.17;;;;;;;-0.23;100.00;99983.98;2224007;80;21540;-83
2022/02/12 02:43:20;;;;;;;10.23;6.87;;;;;;;-0.26;100.00;100004.28;2216660;80;21016;-84
2022/02/12 02:46:20;;;;;;;12.35;6.10;;;;;;;-0.32;100.00;99999.44;2211530;80;21072;-83
2022/02/12 02:49:21;;;;;;;10.23;6.15;;;;;;;-0.36;100.00;100009.53;2140682;82;21009;-83
2022/02/12 02:55:59;;;;;;;11.48;5.92;;;;;;;-0.44;100.00;100019.39;2149725;81;21013;-83
2022/02/12 02:59:00;;;;;;;8.65;5.92;;;;;;;-0.45;100.00;100025.45;2168324;80;21009;-82
2022/02/12 03:02:01;;;;;;;8.38;4.53;;;;;;;-0.44;100.00;100031.80;2161953;82;21465;-82
2022/02/12 03:05:02;;;;;;;10.95;5.03;;;;;;;-0.42;100.00;100041.55;2166445;81;20981;-82
2022/02/12 03:08:03;;;;;;;8.48;4.45;;;;;;;-0.39;100.00;100049.10;2203052;81;21065;-81
2022/02/12 03:11:04;;;;;;;4.40;3.40;;;;;;;-0.36;100.00;100064.88;2124120;83;20962;-81
2022/02/12 03:14:05;;;;;;;7.70;3.75;;;;;;;-0.34;100.00;100069.02;2102353;85;21038;-81
2022/02/12 03:17:06;;;;;;;9.93;3.90;;;;;;;-0.32;100.00;100065.91;2099039;83;21073;-82
2022/02/12 03:20:07;;;;;;;6.83;3.60;;;;;;;-0.29;100.00;100086.34;2175317;82;21498;-82
2022/02/12 03:23:08;;;;;;;4.90;3.08;;;;;;;-0.27;100.00;100091.86;2180782;81;21037;-83
2022/02/12 03:26:09;;;;;;;5.17;3.20;;;;;;;-0.23;100.00;100089.06;2187994;80;20994;-82
2022/02/12 03:29:10;;;;;;;4.28;3.52;;;;;;;-0.22;100.00;100089.44;2187509;81;21097;-83
2022/02/12 03:32:11;;;;;;;6.85;3.10;;;;;;;-0.18;100.00;100097.83;2187535;81;21022;-82
2022/02/12 03:35:12;;;;;;;3.90;3.30;;;;;;;-0.19;100.00;100106.01;2189883;80;21308;-82
2022/02/12 03:38:13;;;;;;;4.10;3.08;;;;;;;-0.17;100.00;100112.39;2223919;80;21005;-82
2022/02/12 03:41:14;;;;;;;6.80;3.65;;;;;;;-0.17;100.00;100119.66;2203303;80;21017;-82
2022/02/12 03:44:14;;;;;;;5.62;3.35;;;;;;;-0.17;100.00;100113.68;2140191;83;20993;-82
2022/02/12 03:47:15;;;;;;;6.60;4.42;;;;;;;-0.18;100.00;100120.57;2185680;80;21005;-83
2022/02/12 03:50:16;;;;;;;8.15;4.72;;;;;;;-0.17;100.00;100132.98;2187060;81;21463;-82
2022/02/12 03:53:17;;;;;;;5.87;4.15;;;;;;;-0.18;100.00;100136.02;2167251;82;21459;-82
2022/02/12 03:56:18;;;;;;;5.83;4.70;;;;;;;-0.20;100.00;100144.25;2141124;83;21352;-84
2022/02/12 03:59:18;;;;;;;7.90;4.00;;;;;;;-0.19;100.00;100148.48;2176272;82;21639;-82
2022/02/12 04:02:19;;;;;;;6.95;4.47;;;;;;;-0.19;100.00;100151.06;2178696;82;20958;-82
2022/02/12 04:05:21;;;;;;;8.05;4.28;;;;;;;-0.20;100.00;100151.14;2182275;81;21516;-82
2022/02/12 04:08:23;;;;;;;12.13;4.75;;;;;;;-0.20;100.00;100167.88;2187149;81;21303;-83
2022/02/12 04:11:24;;;;;;;5.33;3.95;;;;;;;-0.20;100.00;100160.98;2160489;82;21121;-83
2022/02/12 04:14:25;;;;;;;11.48;4.22;;;;;;;-0.22;100.00;100162.81;2179444;82;21010;-78
2022/02/12 04:17:26;;;;;;;8.65;5.30;;;;;;;-0.21;100.00;100172.65;2156533;81;21263;-78
2022/02/12 04:20:27;;;;;;;11.43;5.15;;;;;;;-0.22;100.00;100173.11;2187256;81;21532;-78
2022/02/12 04:23:28;;;;;;;13.70;6.67;;;;;;;-0.20;100.00;100184.16;2142475;82;21059;-78
2022/02/12 04:26:29;;;;;;;11.88;5.78;;;;;;;-0.16;100.00;100200.30;2159042;82;21060;-79
2022/02/12 04:29:29;;;;;;;7.55;5.08;;;;;;;-0.13;100.00;100204.00;2179254;82;20957;-79
2022/02/12 04:32:30;;;;;;;13.88;6.12;;;;;;;-0.14;100.00;100193.33;2179248;82;21073;-79
2022/02/12 04:35:31;;;;;;;9.00;5.72;;;;;;;-0.15;100.00;100206.66;2161684;82;20986;-79
2022/02/12 04:38:32;;;;;;;15.25;6.37;;;;;;;-0.16;100.00;100208.03;2179217;82;21669;-79
2022/02/12 04:41:33;;;;;;;11.55;5.30;;;;;;;-0.19;100.00;100206.41;2179273;82;21601;-80
2022/02/12 04:44:33;;;;;;;14.30;5.35;;;;;;;-0.22;100.00;100213.47;2179332;82;20942;-78
2022/02/12 04:47:36;;;;;;;14.60;6.90;;;;;;;-0.29;100.00;100211.64;2175653;82;21519;-78
2022/02/12 04:50:37;;;;;;;11.38;7.28;;;;;;;-0.32;100.00;100220.80;2172581;82;21422;-79
2022/02/12 04:53:37;;;;;;;11.18;6.35;;;;;;;-0.33;100.00;100214.83;2142124;83;21020;-78
2022/02/12 04:56:38;;;;;;;9.50;6.58;;;;;;;-0.33;100.00;100224.29;2164405;80;21556;-78
2022/02/12 04:59:39;;;;;;;11.35;7.72;;;;;;;-0.35;100.00;100235.12;2191324;81;21086;-79
2022/02/12 05:02:46;;;;;;;16.45;7.70;;;;;;;-0.35;100.00;100241.09;2138614;83;21012;-79
2022/02/12 05:05:42;;;;;;;15.28;7.35;;;;;;;-0.32;100.00;100236.25;2192641;80;20969;-80
2022/02/12 05:08:43;;;;;;;10.53;7.28;;;;;;;-0.28;100.00;100250.63;2163767;81;21479;-78
2022/02/12 05:11:44;;;;;;;15.10;8.40;;;;;;;-0.24;100.00;100258.59;2155588;82;21087;-79
2022/02/12 05:14:44;;;;;;;21.95;9.63;;;;;;;-0.21;100.00;100252.00;2178804;81;21028;-78
2022/02/12 05:17:45;;;;;;;10.63;6.92;;;;;;;-0.19;100.00;100260.48;2159576;81;21072;-79
2022/02/12 05:20:46;;;;;;;12.10;7.37;;;;;;;-0.15;100.00;100271.03;2154905;81;21027;-78
2022/02/12 05:23:46;;;;;;;13.05;7.92;;;;;;;-0.14;100.00;100272.69;2192779;81;21028;-79
2022/02/12 05:26:47;;;;;;;11.55;7.37;;;;;;;-0.12;100.00;100276.02;2174890;81;21051;-80
2022/02/12 05:29:48;;;;;;;11.97;6.15;;;;;;;-0.10;100.00;100288.36;2155295;83;20994;-80
2022/02/12 05:32:48;;;;;;;16.82;8.93;;;;;;;-0.08;100.00;100277.56;2155421;82;21503;-80
2022/02/12 05:35:49;;;;;;;11.03;7.78;;;;;;;-0.06;100.00;100280.89;2160432;81;20960;-78
2022/02/12 05:38:50;;;;;;;10.95;7.67;;;;;;;-0.04;100.00;100284.22;2179314;82;21658;-80
2022/02/12 05:41:51;;;;;;;8.13;5.62;;;;;;;-0.05;100.00;100285.13;2167064;81;20997;-78
2022/02/12 05:44:53;;;;;;;18.32;7.95;;;;;;;-0.09;100.00;100302.06;2215732;80;20996;-78
2022/02/12 05:47:54;;;;;;;13.15;7.40;;;;;;;-0.12;100.00;100302.22;2190957;80;21064;-78
2022/02/12 05:50:55;;;;;;;22.98;13.32;;;;;;;-0.18;100.00;100307.66;2134336;82;20989;-77
2022/02/12 05:53:56;;;;;;;36.48;15.43;;;;;;;-0.27;100.00;100305.52;2173704;82;21005;-78
2022/02/12 05:56:57;;;;;;;14.47;9.13;;;;;;;-0.32;100.00;100316.05;2193149;80;20976;-79
2022/02/12 05:59:57;;;;;;;18.00;10.40;;;;;;;-0.35;100.00;100330.36;2233913;80;21568;-78
2022/02/12 06:02:58;;;;;;;17.02;11.03;;;;;;;-0.33;100.00;100333.23;2213565;80;21001;-77
2022/02/12 06:05:59;;;;;;;16.93;7.75;;;;;;;-0.33;100.00;100330.66;2208086;80;21518;-78
2022/02/12 06:09:00;;;;;;;8.83;5.92;;;;;;;-0.33;100.00;100337.09;2213601;80;21005;-78
2022/02/12 06:12:01;;;;;;;10.68;6.00;;;;;;;-0.32;100.00;100337.47;2233572;80;21016;-78
2022/02/12 06:15:01;;;;;;;9.15;6.55;;;;;;;-0.29;100.00;100340.34;2213010;80;21061;-78
2022/02/12 06:18:02;;;;;;;15.03;8.68;;;;;;;-0.25;100.00;100348.78;2233320;80;20984;-77
2022/02/12 06:21:06;;;;;;;16.93;9.20;;;;;;;-0.21;100.00;100347.72;2184070;80;20939;-78
2022/02/12 06:24:06;;;;;;;17.17;8.25;;;;;;;-0.20;100.00;100351.50;2220355;80;20998;-78
2022/02/12 06:27:07;;;;;;;12.73;7.10;;;;;;;-0.18;100.00;100360.44;2190526;80;21016;-79
2022/02/12 06:30:07;;;;;;;16.23;7.12;;;;;;;-0.13;100.00;100369.63;2220253;80;21005;-79
2022/02/12 06:33:08;;;;;;;11.43;6.70;;;;;;;-0.07;100.00;100368.06;2199640;80;21025;-78
2022/02/12 06:36:09;;;;;;;7.83;5.15;;;;;;;0.03;100.00;100365.89;2220497;80;20933;-79
2022/02/12 06:39:11;;;;;;;11.65;5.62;;;;;;;0.09;100.00;100366.90;2219430;80;21012;-79
2022/02/12 06:42:12;;;;;;;20.10;9.33;;;;;;;0.08;100.00;100370.80;2227874;80;21035;-78
2022/02/12 06:45:13;;;;;;;13.05;8.10;;;;;;;0.16;100.00;100382.41;2228759;80;21004;-77
2022/02/12 06:48:14;;;;;;;23.73;12.05;;;;;;;0.23;100.00;100376.53;2217741;80;21021;-79
2022/02/12 06:51:17;;;;;;;24.02;11.85;;;;;;;0.28;100.00;100384.42;2215832;80;21022;-79
2022/02/12 06:54:17;;;;;;;22.40;12.80;;;;;;;0.34;100.00;100392.75;2215796;80;20942;-79
2022/02/12 06:57:18;;;;;;;20.05;10.85;;;;;;;0.42;100.00;100399.66;2167542;82;21004;-79
2022/02/12 07:00:19;;;;;;;17.52;9.93;;;;;;;0.50;100.00;100412.56;2128671;83;21540;-78
2022/02/12 07:03:20;;;;;;;17.15;8.05;;;;;;;0.61;100.00;100415.91;2148797;82;21025;-78
2022/02/12 07:06:21;;;;;;;26.20;10.53;;;;;;;0.67;100.00;100419.94;2110300;83;20940;-79
2022/02/12 07:09:22;;;;;;;21.45;9.40;;;;;;;0.67;100.00;100419.94;2169519;82;20966;-78
2022/02/12 07:12:23;;;;;;;16.27;8.98;;;;;;;0.70;100.00;100422.35;2170588;82;21040;-79
2022/02/12 07:15:24;;;;;;;13.75;7.92;;;;;;;0.79;100.00;100423.19;2163770;82;22075;-79
2022/02/12 07:18:24;;;;;;;14.20;9.13;;;;;;;0.92;100.00;100426.84;2156590;83;21031;-78
2022/02/12 07:21:25;;;;;;;17.00;10.18;;;;;;;1.00;100.00;100433.71;2159428;82;21079;-81
2022/02/12 07:24:26;;;;;;;14.20;7.62;;;;;;;1.05;100.00;100434.33;2158621;82;21113;-81
2022/02/12 07:27:27;;;;;;;14.60;8.90;;;;;;;1.04;100.00;100433.13;2215521;80;20954;-81
2022/02/12 07:30:28;;;;;;;14.47;8.15;;;;;;;1.10;100.00;100445.27;2215801;80;22140;-80
2022/02/12 07:33:29;;;;;;;10.25;6.90;;;;;;;1.20;100.00;100449.96;2215654;80;21128;-79
2022/02/12 07:36:30;;;;;;;10.78;6.87;;;;;;;1.21;100.00;100461.48;2169505;82;21796;-78
2022/02/12 07:39:30;;;;;;;10.30;5.90;;;;;;;1.35;100.00;100468.06;2215490;80;21060;-79
2022/02/12 07:42:31;;;;;;;8.80;5.60;;;;;;;1.36;100.00;100481.80;2215763;80;21026;-81
2022/02/12 07:45:32;;;;;;;10.88;6.17;;;;;;;1.37;100.00;100477.01;2175523;82;21314;-83
2022/02/12 07:48:33;;;;;;;14.87;8.65;;;;;;;1.37;100.00;100488.63;2178110;82;21128;-80
2022/02/12 07:51:34;;;;;;;29.02;12.23;;;;;;;1.44;100.00;100495.15;2179212;82;21001;-79
2022/02/12 07:54:35;;;;;;;13.35;6.75;;;;;;;1.42;100.00;100499.56;2179158;82;20981;-80
2022/02/12 08:00:41;;;;;;;16.10;9.53;;;;;;;1.40;100.00;100511.27;2171773;82;21310;-83
2022/02/12 08:03:42;;;;;;;13.60;7.03;;;;;;;1.39;100.00;100511.34;2172833;82;21057;-81
2022/02/12 08:11:22;;;;;;;13.85;8.93;;;;;;;1.55;100.00;100519.95;2172225;82;21108;-89
2022/02/12 08:13:04;;;;;;;13.70;7.35;;;;;;;1.61;100.00;100525.28;2157921;82;21033;-89
2022/02/12 08:16:05;;;;;;;22.07;11.63;;;;;;;1.70;100.00;100529.52;2155337;82;21033;-86
